Pagrindinis puslapis
METAR-TAF:

METAR-TAF

Oro uostai :

Le Tontutos tarptautinis oro uostas

Numėja La Tontouta, Naujoji Kaledonija

platuma: 22-01S, ilguma: 166-13E, Aukštis: 16 m

Dabartinis oras

Ataskaita buvo paskelbta 18 minutes, ne 22:00 UTC
Vėjas 3 kt iš Vakarų/Pietvakarių, svyruoja nuo Pietų ir Šiaurės Vakarų
Temperatūra 30°C
Drėgmė 55%
Slėgis 1011 hPa
Matomumas 10 km arba daugiau
nėra debesų žemiau 1500 m ir nėra kamuolinių lietaus debesų

METAR: NWWW 202200Z AUTO 25003KT 190V310 CAVOK 30/20 Q1011 NOSIG

Laikas: 09:18 (22:18 UTC)

Prognozė

Ataskaita buvo paskelbta 5 valandos ir 18 minutes, ne 17:00 UTC
Prognozė galioja nuo 20 metu 18 UTC su 21 metu 18 UTC
Vėjas 2 kt nuo kintamojo kryptimis
Matomumas 10 km arba daugiau
nėra debesų žemiau 1500 m ir nėra kamuolinių lietaus debesų
Tapsmas
nuo 21 metu 01 UTC su 21 metu 03 UTC
Vėjas 10 kt iš Pietų
Tapsmas
nuo 21 metu 06 UTC su 21 metu 08 UTC
Vėjas 2 kt nuo kintamojo kryptimis

TAF: NWWW 201700Z 2018/2118 VRB02KT CAVOK BECMG 2101/2103 17010KT BECMG 2106/2108 VRB02KT

Orai ataskaitas ir orų prognozės (METAR, TAF).

turimą stotys yra geltonos ir raudonos taškus žemėlapyje.

Perkelti pele per norėdami pamatyti stoties vardą.

Tada spustelėkite, norėdami matyti oro stebėjimo ir prognozės.

Norėdami pakeisti žemėlapį: spustelėkite ant žalios mygtukų su juodo kryžiaus žemyn,; žalią mygtuką su brūkšneliu, jei norite nutolinti; arba žalių rodyklių gretimoms žemėlapius.


METAR-TAF: